Time;durP1;ratioP1;P1;durP2;ratioP2;P2;SDS_P1;SDS_P2;PMS_P1;PMS_P2;Temp;Humidity;BMP_temperature;BMP_pressure;BME280_temperature;BME280_humidity;BME280_pressure;Samples;Min_cycle;Max_cycle;Signal;HPM_P1;HPM_P2
2021/04/19 00:08:00;;;;;;;14.73;8.57;;;10.80;99.90;;;;;;6677325;88;20226;-80
2021/04/19 00:18:01;;;;;;;15.98;9.20;;;10.70;99.90;;;;;;6674045;88;20199;-80
2021/04/19 00:28:02;;;;;;;17.98;8.35;;;10.60;99.90;;;;;;6672964;89;20779;-80
2021/04/19 00:38:03;;;;;;;15.30;8.80;;;10.40;99.90;;;;;;6676275;88;20622;-79
2021/04/19 00:48:04;;;;;;;15.95;9.25;;;10.40;99.90;;;;;;6681172;88;20224;-79
2021/04/19 00:58:04;;;;;;;16.65;8.98;;;10.30;99.90;;;;;;6686112;88;20203;-79
2021/04/19 01:08:07;;;;;;;16.00;9.83;;;10.20;99.90;;;;;;6685464;88;20203;-79
2021/04/19 01:18:08;;;;;;;15.50;9.18;;;10.10;99.90;;;;;;6692315;88;20580;-79
2021/04/19 01:28:10;;;;;;;17.45;9.32;;;9.80;99.90;;;;;;6690232;88;20192;-78
2021/04/19 01:38:13;;;;;;;15.43;9.25;;;9.80;99.90;;;;;;6720035;88;20390;-79
2021/04/19 01:48:14;;;;;;;17.27;9.73;;;9.70;99.90;;;;;;6711104;87;20532;-79
2021/04/19 01:58:18;;;;;;;18.30;9.85;;;9.40;99.90;;;;;;6716267;88;20229;-80
2021/04/19 02:08:31;;;;;;;19.00;9.43;;;9.40;99.90;;;;;;6717331;88;20198;-79
2021/04/19 02:18:54;;;;;;;21.17;10.43;;;9.40;99.90;;;;;;6704417;88;20237;-79
2021/04/19 02:29:02;;;;;;;17.05;9.50;;;9.20;99.90;;;;;;6705808;88;20281;-80
2021/04/19 02:39:04;;;;;;;19.27;10.52;;;9.20;99.90;;;;;;6740152;88;20239;-79
2021/04/19 02:49:07;;;;;;;18.08;9.77;;;9.10;99.90;;;;;;6721994;88;20215;-79
2021/04/19 02:59:09;;;;;;;19.87;10.20;;;9.20;99.90;;;;;;6705451;87;20191;-79
2021/04/19 03:09:11;;;;;;;18.65;11.35;;;8.90;99.90;;;;;;6716346;88;20499;-79
2021/04/19 03:19:15;;;;;;;20.70;11.45;;;8.80;99.90;;;;;;6709591;88;20235;-80
2021/04/19 03:29:16;;;;;;;19.92;10.40;;;8.70;99.90;;;;;;6723488;88;20705;-79
2021/04/19 03:39:18;;;;;;;19.98;10.55;;;8.80;99.90;;;;;;6690274;88;20718;-78
2021/04/19 03:49:28;;;;;;;21.77;10.35;;;8.70;99.90;;;;;;6705389;88;20343;-79
2021/04/19 03:59:31;;;;;;;19.48;10.38;;;8.70;99.90;;;;;;6699445;88;20216;-79
2021/04/19 04:09:32;;;;;;;23.95;10.35;;;8.70;99.90;;;;;;6697310;88;20199;-80
2021/04/19 04:19:32;;;;;;;22.80;10.88;;;8.60;99.90;;;;;;6700168;88;20226;-79
2021/04/19 04:29:33;;;;;;;24.75;11.57;;;8.60;99.90;;;;;;6715083;88;20219;-79
2021/04/19 04:39:34;;;;;;;25.40;11.75;;;8.60;99.90;;;;;;6713427;88;20191;-79
2021/04/19 04:49:59;;;;;;;27.17;12.60;;;8.60;99.90;;;;;;6722498;88;20326;-79
2021/04/19 05:00:01;;;;;;;24.23;11.38;;;8.50;99.90;;;;;;6678475;88;20188;-79
2021/04/19 05:10:03;;;;;;;27.98;14.02;;;8.50;99.90;;;;;;6712604;87;20164;-79
2021/04/19 05:20:05;;;;;;;28.23;13.75;;;8.40;99.90;;;;;;6685245;87;20230;-80
2021/04/19 05:30:07;;;;;;;31.65;15.18;;;8.20;99.90;;;;;;6663137;89;20188;-81
2021/04/19 05:40:08;;;;;;;31.12;15.00;;;8.10;99.90;;;;;;6673731;88;20152;-81
2021/04/19 05:50:09;;;;;;;38.97;17.73;;;8.00;99.90;;;;;;6659061;89;20208;-80
2021/04/19 06:00:19;;;;;;;32.80;18.00;;;7.90;99.90;;;;;;6653919;88;20217;-79
2021/04/19 06:10:25;;;;;;;35.85;19.95;;;7.90;99.90;;;;;;6657081;89;20192;-78
2021/04/19 06:20:26;;;;;;;38.17;20.67;;;7.70;99.90;;;;;;6675273;89;20376;-79
2021/04/19 06:30:30;;;;;;;37.08;19.95;;;7.80;99.90;;;;;;6682237;88;20520;-79
2021/04/19 06:40:34;;;;;;;41.67;19.98;;;7.80;99.90;;;;;;6671552;89;20201;-79
2021/04/19 06:50:36;;;;;;;41.47;22.87;;;7.70;99.90;;;;;;6744072;88;20191;-78
2021/04/19 07:00:38;;;;;;;32.78;19.80;;;7.70;99.90;;;;;;6672278;88;20192;-79
2021/04/19 07:10:41;;;;;;;43.42;22.25;;;7.80;99.90;;;;;;6673856;89;20607;-79
2021/04/19 07:20:43;;;;;;;42.30;23.50;;;7.70;99.90;;;;;;6672865;89;20195;-79
2021/04/19 07:30:44;;;;;;;44.08;23.92;;;7.80;99.90;;;;;;6669160;89;20214;-78
2021/04/19 07:40:48;;;;;;;44.97;24.80;;;8.00;99.90;;;;;;6673913;89;20214;-78
2021/04/19 07:50:48;;;;;;;45.05;26.30;;;8.00;99.90;;;;;;6674665;89;20195;-79
2021/04/19 08:00:51;;;;;;;43.75;24.95;;;8.10;99.90;;;;;;6669954;89;20226;-78
2021/04/19 08:11:12;;;;;;;53.25;30.37;;;8.10;99.90;;;;;;6670441;89;20217;-78
2021/04/19 08:21:13;;;;;;;53.22;28.20;;;8.00;99.90;;;;;;6663164;88;20184;-77
2021/04/19 08:31:15;;;;;;;47.25;26.45;;;7.90;99.90;;;;;;6674940;89;20335;-77
2021/04/19 08:41:16;;;;;;;45.03;26.52;;;8.10;99.90;;;;;;6676399;89;20712;-77
2021/04/19 08:51:16;;;;;;;38.13;24.60;;;8.30;99.90;;;;;;6669005;89;20266;-79
2021/04/19 09:01:17;;;;;;;42.88;25.05;;;8.40;99.90;;;;;;6670544;89;20321;-79
2021/04/19 09:11:27;;;;;;;40.95;25.05;;;8.60;99.90;;;;;;6671209;89;20246;-78
2021/04/19 09:21:43;;;;;;;44.03;24.48;;;8.70;99.90;;;;;;6672358;88;20258;-79
2021/04/19 09:31:55;;;;;;;36.87;22.77;;;8.80;99.90;;;;;;6673016;89;20336;-77
2021/04/19 09:41:56;;;;;;;34.20;21.33;;;9.30;99.90;;;;;;6671318;89;20199;-78
2021/04/19 09:51:56;;;;;;;30.77;19.98;;;9.80;99.90;;;;;;6670845;89;20647;-78
2021/04/19 10:02:00;;;;;;;30.02;19.50;;;10.10;99.90;;;;;;6669965;89;20172;-79
2021/04/19 10:12:07;;;;;;;32.95;20.88;;;10.20;99.90;;;;;;6657097;88;20393;-76
2021/04/19 10:22:09;;;;;;;35.05;21.98;;;10.10;99.90;;;;;;6664356;89;20314;-79
2021/04/19 10:32:10;;;;;;;34.45;22.02;;;10.60;99.90;;;;;;6672415;88;20187;-78
2021/04/19 10:42:10;;;;;;;31.75;19.95;;;11.10;99.90;;;;;;6670313;88;20317;-78
2021/04/19 10:52:11;;;;;;;31.48;19.70;;;11.30;99.90;;;;;;6664955;89;20306;-80
2021/04/19 11:02:12;;;;;;;34.13;20.40;;;11.40;99.90;;;;;;6672775;88;20175;-79
2021/04/19 11:12:13;;;;;;;31.42;20.48;;;11.10;99.90;;;;;;6666790;88;20220;-79
2021/04/19 11:22:28;;;;;;;31.30;19.80;;;11.70;99.90;;;;;;6675507;88;20192;-79
2021/04/19 11:32:35;;;;;;;30.42;18.42;;;12.90;99.90;;;;;;6668766;88;20179;-78
2021/04/19 11:42:36;;;;;;;29.00;18.12;;;13.60;99.90;;;;;;6675483;88;20220;-78
2021/04/19 11:52:47;;;;;;;21.62;14.20;;;14.30;99.90;;;;;;6665335;88;20273;-77
2021/04/19 12:02:48;;;;;;;23.65;15.85;;;15.90;99.90;;;;;;6668499;89;20209;-78
2021/04/19 12:12:49;;;;;;;22.83;14.68;;;15.90;99.90;;;;;;6663888;88;20656;-77
2021/04/19 12:22:49;;;;;;;18.17;12.50;;;15.80;99.90;;;;;;6666980;89;20259;-79
2021/04/19 12:32:50;;;;;;;18.20;12.40;;;15.90;99.90;;;;;;6689884;88;21742;-75
2021/04/19 12:42:51;;;;;;;17.48;11.90;;;15.80;99.90;;;;;;6674323;88;20355;-78
2021/04/19 12:52:51;;;;;;;16.12;10.10;;;17.00;99.90;;;;;;6672781;89;20244;-78
2021/04/19 13:02:52;;;;;;;16.83;11.00;;;16.90;99.90;;;;;;6674270;88;20172;-80
2021/04/19 13:12:53;;;;;;;13.57;9.52;;;16.90;99.90;;;;;;6664999;88;20207;-79
2021/04/19 13:22:54;;;;;;;14.20;10.05;;;17.40;99.90;;;;;;6671459;89;20220;-80
2021/04/19 13:32:55;;;;;;;13.85;8.77;;;18.20;99.90;;;;;;6681473;88;20297;-80
2021/04/19 13:42:56;;;;;;;13.88;9.57;;;17.30;99.90;;;;;;6675381;88;20246;-80
2021/04/19 13:52:56;;;;;;;13.60;9.52;;;17.20;99.90;;;;;;6680336;88;20196;-77
2021/04/19 14:02:57;;;;;;;14.13;9.37;;;16.90;99.90;;;;;;6672998;89;20254;-79
2021/04/19 14:12:57;;;;;;;14.82;9.07;;;16.20;99.90;;;;;;6668920;88;20550;-79
2021/04/19 14:22:59;;;;;;;16.08;9.27;;;15.70;99.90;;;;;;6665390;89;20207;-79
2021/04/19 14:32:59;;;;;;;15.02;9.45;;;15.50;99.90;;;;;;6669602;88;20183;-75
2021/04/19 14:43:00;;;;;;;15.57;9.83;;;15.40;99.90;;;;;;6668782;88;20188;-79
2021/04/19 14:53:00;;;;;;;13.93;9.43;;;15.20;99.90;;;;;;6668655;88;20644;-78
2021/04/19 15:03:01;;;;;;;14.80;9.60;;;15.30;99.90;;;;;;6668134;88;20234;-78
2021/04/19 15:13:01;;;;;;;15.38;9.82;;;15.20;99.90;;;;;;6666659;88;20885;-78
2021/04/19 15:23:04;;;;;;;15.35;10.32;;;15.20;99.90;;;;;;6661325;88;20250;-78
2021/04/19 15:33:05;;;;;;;17.08;10.95;;;15.20;99.90;;;;;;6665195;89;20195;-78
2021/04/19 15:43:05;;;;;;;18.10;9.90;;;14.90;99.90;;;;;;6662595;88;20394;-77
2021/04/19 15:53:07;;;;;;;17.50;9.98;;;14.90;99.90;;;;;;6662816;88;20192;-79
2021/04/19 16:03:08;;;;;;;15.18;9.98;;;14.70;99.90;;;;;;6663361;88;20207;-78
2021/04/19 16:13:08;;;;;;;15.23;9.35;;;14.60;99.90;;;;;;6665093;88;20185;-76
2021/04/19 16:23:09;;;;;;;16.60;9.20;;;14.50;99.90;;;;;;6660433;88;20233;-75
2021/04/19 16:33:10;;;;;;;15.27;9.37;;;14.30;99.90;;;;;;6662632;88;22100;-74
2021/04/19 16:43:10;;;;;;;13.67;9.20;;;14.00;99.90;;;;;;6674410;89;20540;-76
2021/04/19 16:53:11;;;;;;;17.20;9.80;;;14.00;99.90;;;;;;6663644;89;21097;-76
2021/04/19 17:03:12;;;;;;;15.32;9.20;;;14.20;99.90;;;;;;6676871;89;20198;-78
2021/04/19 17:13:12;;;;;;;16.05;9.80;;;14.40;99.90;;;;;;6698063;88;20208;-78
2021/04/19 17:23:13;;;;;;;15.40;9.63;;;14.40;99.90;;;;;;6674986;89;20184;-78
2021/04/19 17:33:14;;;;;;;15.20;9.60;;;14.20;99.90;;;;;;6665065;88;20703;-76
2021/04/19 17:43:14;;;;;;;17.73;10.73;;;14.00;99.90;;;;;;6665099;89;20338;-77
2021/04/19 17:53:15;;;;;;;15.70;10.35;;;14.00;99.90;;;;;;6660624;88;20668;-77
2021/04/19 18:03:17;;;;;;;18.23;11.38;;;13.80;99.90;;;;;;6668255;88;20192;-75
2021/04/19 18:13:18;;;;;;;15.82;9.63;;;13.50;99.90;;;;;;6667862;88;20258;-77
2021/04/19 18:23:18;;;;;;;15.45;9.15;;;13.20;99.90;;;;;;6670392;89;20188;-78
2021/04/19 18:33:19;;;;;;;16.55;10.18;;;12.90;99.90;;;;;;6703717;77;20320;-78
2021/04/19 18:43:20;;;;;;;18.15;10.07;;;12.80;99.90;;;;;;6739554;88;20200;-77
2021/04/19 18:53:21;;;;;;;16.08;10.07;;;12.60;99.90;;;;;;6745741;88;20198;-78
2021/04/19 19:03:22;;;;;;;14.07;9.02;;;12.40;99.90;;;;;;6729891;88;20196;-78
2021/04/19 19:13:23;;;;;;;15.32;9.50;;;12.00;99.90;;;;;;6734417;88;20193;-78
2021/04/19 19:23:24;;;;;;;18.48;10.35;;;11.90;99.90;;;;;;6740823;88;20720;-78
2021/04/19 19:33:25;;;;;;;17.65;10.40;;;11.70;99.90;;;;;;6740144;88;20188;-78
2021/04/19 19:43:26;;;;;;;17.52;10.75;;;11.50;99.90;;;;;;6744685;88;20285;-78
2021/04/19 19:53:28;;;;;;;19.83;11.97;;;11.30;99.90;;;;;;6744194;88;20359;-81
2021/04/19 20:03:29;;;;;;;19.27;11.85;;;11.00;99.90;;;;;;6733915;88;21407;-78
2021/04/19 20:13:29;;;;;;;21.33;12.30;;;10.80;99.90;;;;;;6733155;88;20195;-80
2021/04/19 20:23:30;;;;;;;24.27;13.40;;;10.60;99.90;;;;;;6730274;88;20193;-78
2021/04/19 20:33:31;;;;;;;20.30;12.63;;;10.40;99.90;;;;;;6727176;88;20246;-78
2021/04/19 20:43:32;;;;;;;22.13;13.20;;;10.20;99.90;;;;;;6729354;88;20643;-79
2021/04/19 20:53:32;;;;;;;23.62;13.27;;;10.10;99.90;;;;;;6736023;88;20308;-79
2021/04/19 21:03:33;;;;;;;21.30;12.85;;;10.00;99.90;;;;;;6734677;88;20216;-79
2021/04/19 21:13:33;;;;;;;23.23;12.80;;;9.80;99.90;;;;;;6735748;88;20322;-81
2021/04/19 21:23:34;;;;;;;22.05;12.95;;;9.60;99.90;;;;;;6734708;88;20640;-78
2021/04/19 21:33:35;;;;;;;24.90;13.57;;;9.40;99.90;;;;;;6751142;88;20339;-79
2021/04/19 21:43:35;;;;;;;23.17;13.82;;;9.20;99.90;;;;;;6747411;88;20288;-79
2021/04/19 21:53:36;;;;;;;27.20;15.30;;;9.10;99.90;;;;;;6741929;87;21040;-77
2021/04/19 22:03:37;;;;;;;23.38;13.93;;;9.00;99.90;;;;;;6732837;88;20177;-77
2021/04/19 22:13:38;;;;;;;26.25;15.40;;;8.80;99.90;;;;;;6735790;88;20281;-77
2021/04/19 22:23:38;;;;;;;27.10;15.48;;;8.60;99.90;;;;;;6721346;88;20197;-78
2021/04/19 22:33:39;;;;;;;28.80;15.25;;;8.40;99.90;;;;;;6728487;88;20212;-78
2021/04/19 22:43:40;;;;;;;25.60;14.65;;;8.10;99.90;;;;;;6720545;88;20180;-78
2021/04/19 22:53:40;;;;;;;23.62;13.82;;;8.10;99.90;;;;;;6728491;88;20185;-78
2021/04/19 23:03:41;;;;;;;26.20;14.32;;;8.10;99.90;;;;;;6729559;88;21089;-77
2021/04/19 23:13:42;;;;;;;28.20;15.05;;;7.90;99.90;;;;;;6737912;88;20203;-77
2021/04/19 23:23:42;;;;;;;34.72;18.83;;;7.90;99.90;;;;;;6738215;88;20263;-78
2021/04/19 23:33:43;;;;;;;37.10;18.55;;;7.60;99.90;;;;;;6720652;88;20182;-78
2021/04/19 23:43:43;;;;;;;36.10;17.70;;;7.40;99.90;;;;;;6719886;88;20687;-77
2021/04/19 23:53:44;;;;;;;36.58;17.90;;;7.20;99.90;;;;;;6719342;88;20786;-78
